createdAt,value
2019-03-13T00:00:16.560Z,5.62
2019-03-13T00:01:16.551Z,5.59
2019-03-13T00:02:16.581Z,5.59
2019-03-13T00:03:16.531Z,5.65
2019-03-13T00:04:16.564Z,5.68
2019-03-13T00:05:16.512Z,5.66
2019-03-13T00:06:16.514Z,5.62
2019-03-13T00:07:16.505Z,5.66
2019-03-13T00:08:16.483Z,5.73
2019-03-13T00:09:16.460Z,5.71
2019-03-13T00:10:16.443Z,5.71
2019-03-13T00:11:16.447Z,5.72
2019-03-13T00:12:16.429Z,5.72
2019-03-13T00:13:16.445Z,5.71
2019-03-13T00:14:16.431Z,5.66
2019-03-13T00:15:16.471Z,5.72
2019-03-13T00:16:16.416Z,5.69
2019-03-13T00:17:16.370Z,5.75
2019-03-13T00:18:16.546Z,5.69
2019-03-13T00:19:16.417Z,5.75
2019-03-13T00:20:16.576Z,5.75
2019-03-13T00:21:16.416Z,5.73
2019-03-13T00:22:16.456Z,5.79
2019-03-13T00:23:16.414Z,5.75
2019-03-13T00:24:16.333Z,5.72
2019-03-13T00:25:16.321Z,5.72
2019-03-13T00:26:16.403Z,5.75
2019-03-13T00:27:16.327Z,5.69
2019-03-13T00:28:16.404Z,5.69
2019-03-13T00:29:16.298Z,5.76
2019-03-13T00:30:16.269Z,5.73
2019-03-13T00:31:16.295Z,5.79
2019-03-13T00:32:16.251Z,5.73
2019-03-13T00:33:16.244Z,5.82
2019-03-13T00:34:16.220Z,5.83
2019-03-13T00:35:16.223Z,5.71
2019-03-13T00:36:16.210Z,5.69
2019-03-13T00:37:16.240Z,5.76
2019-03-13T00:38:16.276Z,5.76
2019-03-13T00:39:16.298Z,5.73
2019-03-13T00:40:16.177Z,5.79
2019-03-13T00:41:16.166Z,5.76
2019-03-13T00:42:16.195Z,5.75
2019-03-13T00:43:16.147Z,5.72
2019-03-13T00:44:16.217Z,5.86
2019-03-13T00:45:16.201Z,5.86
2019-03-13T00:46:16.118Z,5.83
2019-03-13T00:47:16.073Z,5.76
2019-03-13T00:48:16.104Z,5.82
2019-03-13T00:49:16.078Z,5.73
2019-03-13T00:50:16.031Z,5.69
2019-03-13T00:51:16.113Z,5.73
2019-03-13T00:52:16.023Z,5.69
2019-03-13T00:53:16.018Z,5.65
2019-03-13T00:54:16.137Z,5.64
2019-03-13T00:55:16.009Z,5.59
2019-03-13T00:56:15.998Z,5.54
2019-03-13T00:57:15.982Z,5.54
2019-03-13T00:58:15.990Z,5.62
2019-03-13T00:59:15.970Z,5.59
2019-03-13T01:00:16.130Z,5.57
2019-03-13T01:01:15.924Z,5.59
2019-03-13T01:02:15.904Z,5.62
2019-03-13T01:03:16.039Z,5.59
2019-03-13T01:04:15.903Z,5.62
2019-03-13T01:05:15.844Z,5.61
2019-03-13T01:06:15.874Z,5.68
2019-03-13T01:07:15.848Z,5.56
2019-03-13T01:08:15.852Z,5.48
2019-03-13T01:09:15.881Z,5.51
2019-03-13T01:10:15.782Z,5.61
2019-03-13T01:11:15.836Z,5.57
2019-03-13T01:12:15.810Z,5.56
2019-03-13T01:13:15.807Z,5.64
2019-03-13T01:14:15.839Z,5.61
2019-03-13T01:15:15.820Z,5.57
2019-03-13T01:16:15.766Z,5.62
2019-03-13T01:17:15.784Z,5.59
2019-03-13T01:18:15.744Z,5.64
2019-03-13T01:19:15.820Z,5.57
2019-03-13T01:20:15.728Z,5.65
2019-03-13T01:21:15.694Z,5.62
2019-03-13T01:22:15.693Z,5.61
2019-03-13T01:23:15.686Z,5.62
2019-03-13T01:24:15.725Z,5.59
2019-03-13T01:25:15.629Z,5.56
2019-03-13T01:26:15.771Z,5.59
2019-03-13T01:27:15.673Z,5.59
2019-03-13T01:28:15.649Z,5.65
2019-03-13T01:29:15.656Z,5.59
2019-03-13T01:30:15.654Z,5.61
2019-03-13T01:31:15.605Z,5.62
2019-03-13T01:32:15.623Z,5.66
2019-03-13T01:33:15.557Z,5.56
2019-03-13T01:34:15.580Z,5.57
2019-03-13T01:35:15.645Z,5.68
2019-03-13T01:36:15.579Z,5.65
2019-03-13T01:37:15.538Z,5.71
2019-03-13T01:38:15.547Z,5.66
2019-03-13T01:39:15.487Z,5.69
2019-03-13T01:40:15.486Z,5.75
2019-03-13T01:41:15.590Z,5.83
2019-03-13T01:42:15.485Z,5.82
2019-03-13T01:43:15.438Z,5.79
2019-03-13T01:44:15.433Z,5.86
2019-03-13T01:45:15.422Z,5.76
2019-03-13T01:46:15.502Z,5.79
2019-03-13T01:47:15.394Z,5.87
2019-03-13T01:48:15.384Z,5.90
2019-03-13T01:49:15.410Z,5.90
2019-03-13T01:50:15.381Z,5.87
2019-03-13T01:51:15.391Z,5.80
2019-03-13T01:52:15.469Z,5.80
2019-03-13T01:53:15.371Z,5.79
2019-03-13T01:54:15.386Z,5.82
2019-03-13T01:55:15.380Z,5.76
2019-03-13T01:56:15.447Z,5.79
2019-03-13T01:57:15.333Z,5.82
2019-03-13T01:58:15.344Z,5.84
2019-03-13T01:59:15.408Z,5.80
2019-03-13T02:00:15.233Z,5.76
2019-03-13T02:01:15.280Z,5.79
2019-03-13T02:02:15.342Z,5.86
2019-03-13T02:03:15.331Z,5.82
2019-03-13T02:04:15.208Z,5.86
2019-03-13T02:05:15.971Z,5.80
2019-03-13T02:06:15.215Z,5.84
2019-03-13T02:07:15.205Z,5.86
2019-03-13T02:08:15.164Z,5.80
2019-03-13T02:09:15.355Z,5.86
2019-03-13T02:10:15.182Z,5.80
2019-03-13T02:11:15.165Z,5.82
2019-03-13T02:12:15.143Z,5.80
2019-03-13T02:13:15.132Z,5.80
2019-03-13T02:14:15.142Z,5.83
2019-03-13T02:15:16.040Z,5.83
2019-03-13T02:16:15.141Z,5.83
2019-03-13T02:17:15.164Z,5.82
2019-03-13T02:18:15.173Z,5.82
2019-03-13T02:19:15.042Z,5.84
2019-03-13T02:20:15.026Z,5.79
2019-03-13T02:21:15.079Z,5.87
2019-03-13T02:22:15.077Z,5.75
2019-03-13T02:23:15.014Z,5.82
2019-03-13T02:24:15.013Z,5.79
2019-03-13T02:25:15.003Z,5.82
2019-03-13T02:26:15.062Z,5.86
2019-03-13T02:27:14.974Z,5.82
2019-03-13T02:28:14.965Z,5.80
2019-03-13T02:29:14.944Z,5.86
2019-03-13T02:30:14.930Z,5.83
2019-03-13T02:31:14.948Z,5.84
2019-03-13T02:32:15.047Z,5.76
2019-03-13T02:33:15.028Z,5.89
2019-03-13T02:34:14.918Z,5.84
2019-03-13T02:35:14.853Z,5.84
2019-03-13T02:36:15.061Z,5.90
2019-03-13T02:37:14.879Z,5.84
2019-03-13T02:38:14.976Z,5.89
2019-03-13T02:39:15.049Z,5.89
2019-03-13T02:40:14.906Z,5.91
2019-03-13T02:41:14.842Z,5.86
2019-03-13T02:42:14.835Z,5.89
2019-03-13T02:43:14.812Z,5.84
2019-03-13T02:44:14.817Z,5.90
2019-03-13T02:45:14.967Z,5.97
2019-03-13T02:46:14.875Z,5.91
2019-03-13T02:47:18.766Z,5.98
2019-03-13T02:48:14.779Z,5.89
2019-03-13T02:49:14.752Z,5.98
2019-03-13T02:50:14.829Z,5.89
2019-03-13T02:51:14.705Z,5.83
2019-03-13T02:52:14.730Z,5.91
2019-03-13T02:53:14.701Z,5.89
2019-03-13T02:54:14.684Z,5.89
2019-03-13T02:55:14.920Z,5.91
2019-03-13T02:56:14.668Z,5.90
2019-03-13T02:57:14.726Z,5.90
2019-03-13T02:58:14.654Z,5.90
2019-03-13T02:59:14.654Z,5.91
2019-03-13T03:00:14.605Z,5.90
2019-03-13T03:01:14.634Z,5.87
2019-03-13T03:02:14.704Z,5.93
2019-03-13T03:03:14.746Z,5.93
2019-03-13T03:04:14.680Z,6.02
2019-03-13T03:05:14.571Z,5.93
2019-03-13T03:06:14.548Z,5.93
2019-03-13T03:07:14.549Z,5.89
2019-03-13T03:08:14.539Z,5.90
2019-03-13T03:09:14.636Z,5.97
2019-03-13T03:10:14.514Z,5.91
2019-03-13T03:11:14.701Z,5.86
2019-03-13T03:12:14.565Z,5.91
2019-03-13T03:13:14.549Z,5.94
2019-03-13T03:14:14.564Z,5.94
2019-03-13T03:15:14.445Z,5.86
2019-03-13T03:16:14.442Z,5.98
2019-03-13T03:17:14.419Z,5.90
2019-03-13T03:18:14.432Z,5.97
2019-03-13T03:19:14.534Z,5.98
2019-03-13T03:20:14.394Z,5.99
2019-03-13T03:21:14.378Z,5.99
2019-03-13T03:22:14.509Z,6.02
2019-03-13T03:23:14.371Z,5.93
2019-03-13T03:24:14.354Z,5.84
2019-03-13T03:25:14.468Z,5.90
2019-03-13T03:26:14.336Z,5.93
2019-03-13T03:27:14.331Z,6.01
2019-03-13T03:28:14.371Z,5.89
2019-03-13T03:29:14.300Z,5.97
2019-03-13T03:30:14.289Z,6.02
2019-03-13T03:31:14.327Z,5.94
2019-03-13T03:32:14.251Z,5.99
2019-03-13T03:33:14.261Z,5.91
2019-03-13T03:34:14.369Z,5.87
2019-03-13T03:35:14.237Z,5.93
2019-03-13T03:36:14.977Z,5.93
2019-03-13T03:37:14.207Z,5.87
2019-03-13T03:38:14.219Z,5.97
2019-03-13T03:39:15.580Z,5.93
2019-03-13T03:40:14.273Z,5.93
2019-03-13T03:41:14.198Z,5.90
2019-03-13T03:42:14.198Z,5.90
2019-03-13T03:43:14.137Z,5.86
2019-03-13T03:44:14.196Z,5.89
2019-03-13T03:45:14.198Z,5.89
2019-03-13T03:46:14.106Z,5.84
2019-03-13T03:47:14.090Z,5.87
2019-03-13T03:48:14.076Z,5.87
2019-03-13T03:49:14.083Z,5.90
2019-03-13T03:50:14.089Z,5.94
2019-03-13T03:51:14.185Z,5.89
2019-03-13T03:52:14.140Z,6.02
2019-03-13T03:53:14.033Z,5.89
2019-03-13T03:54:14.114Z,5.98
2019-03-13T03:55:14.014Z,6.07
2019-03-13T03:56:13.996Z,5.94
2019-03-13T03:57:14.206Z,6.11
2019-03-13T03:58:14.061Z,6.04
2019-03-13T03:59:13.952Z,5.97
2019-03-13T04:00:13.944Z,6.09
2019-03-13T04:01:13.950Z,6.12
2019-03-13T04:02:14.027Z,6.11
2019-03-13T04:03:13.934Z,6.22
2019-03-13T04:04:13.967Z,6.19
2019-03-13T04:05:14.023Z,6.26
2019-03-13T04:06:13.892Z,6.22
2019-03-13T04:07:13.888Z,6.20
2019-03-13T04:08:13.958Z,6.17
2019-03-13T04:09:13.838Z,6.19
2019-03-13T04:10:13.836Z,6.27
2019-03-13T04:11:13.838Z,6.27
2019-03-13T04:12:13.932Z,6.14
2019-03-13T04:13:13.804Z,6.17
2019-03-13T04:14:14.592Z,6.24
2019-03-13T04:15:13.783Z,6.24
2019-03-13T04:16:13.779Z,6.30
2019-03-13T04:17:13.856Z,6.22
2019-03-13T04:18:13.892Z,6.20
2019-03-13T04:19:13.741Z,6.27
2019-03-13T04:20:13.734Z,6.20
2019-03-13T04:21:13.933Z,6.24
2019-03-13T04:22:13.719Z,6.27
2019-03-13T04:23:13.703Z,6.26
2019-03-13T04:24:13.735Z,6.24
2019-03-13T04:25:13.658Z,6.28
2019-03-13T04:26:13.716Z,6.27
2019-03-13T04:27:13.736Z,6.33
2019-03-13T04:28:13.648Z,6.31
2019-03-13T04:29:13.627Z,6.22
2019-03-13T04:30:13.706Z,6.31
2019-03-13T04:31:13.592Z,6.33
2019-03-13T04:32:13.605Z,6.30
2019-03-13T04:33:13.602Z,6.30
2019-03-13T04:34:13.553Z,6.30
2019-03-13T04:35:13.662Z,6.33
2019-03-13T04:36:13.580Z,6.33
2019-03-13T04:37:13.577Z,6.36
2019-03-13T04:38:13.546Z,6.33
2019-03-13T04:39:13.522Z,6.31
2019-03-13T04:40:13.584Z,6.38
2019-03-13T04:41:13.516Z,6.33
2019-03-13T04:42:13.581Z,6.35
2019-03-13T04:43:13.496Z,6.28
2019-03-13T04:44:13.512Z,6.38
2019-03-13T04:45:13.460Z,6.33
2019-03-13T04:46:13.449Z,6.30
2019-03-13T04:47:13.411Z,6.35
2019-03-13T04:48:13.420Z,6.36
2019-03-13T04:49:13.417Z,6.35
2019-03-13T04:50:14.583Z,6.31
2019-03-13T04:51:13.392Z,6.38
2019-03-13T04:52:13.380Z,6.36
2019-03-13T04:53:13.364Z,6.33
2019-03-13T04:54:13.339Z,6.31
2019-03-13T04:55:13.330Z,6.31
2019-03-13T04:56:13.450Z,6.42
2019-03-13T04:57:13.319Z,6.28
2019-03-13T04:58:13.421Z,6.38
2019-03-13T04:59:13.298Z,6.41
2019-03-13T05:00:13.277Z,6.31
2019-03-13T05:01:13.298Z,6.36
2019-03-13T05:02:13.334Z,6.42
2019-03-13T05:03:13.287Z,6.41
2019-03-13T05:04:13.251Z,6.33
2019-03-13T05:05:13.240Z,6.30
2019-03-13T05:06:13.226Z,6.39
2019-03-13T05:07:13.223Z,6.33
2019-03-13T05:08:13.316Z,6.36
2019-03-13T05:09:13.170Z,6.48
2019-03-13T05:10:13.178Z,6.46
2019-03-13T05:11:13.178Z,6.39
2019-03-13T05:12:13.986Z,6.44
2019-03-13T05:13:13.115Z,6.38
2019-03-13T05:14:13.225Z,6.52
2019-03-13T05:15:13.106Z,6.46
2019-03-13T05:16:13.195Z,6.51
2019-03-13T05:17:13.151Z,6.49
2019-03-13T05:18:13.070Z,6.51
2019-03-13T05:19:13.174Z,6.52
2019-03-13T05:20:13.921Z,6.49
2019-03-13T05:21:13.056Z,6.44
2019-03-13T05:22:13.031Z,6.42
2019-03-13T05:23:13.017Z,6.52
2019-03-13T05:24:12.999Z,6.57
2019-03-13T05:25:12.997Z,6.54
2019-03-13T05:26:13.040Z,6.59
2019-03-13T05:27:12.986Z,6.45
2019-03-13T05:28:12.984Z,6.44
2019-03-13T05:29:13.491Z,6.44
2019-03-13T05:30:13.025Z,6.56
2019-03-13T05:31:12.917Z,6.56
2019-03-13T05:32:12.917Z,6.57
2019-03-13T05:33:12.964Z,6.57
2019-03-13T05:34:12.943Z,6.56
2019-03-13T05:35:12.882Z,6.57
2019-03-13T05:36:16.333Z,6.57
2019-03-13T05:37:12.896Z,6.52
2019-03-13T05:38:12.864Z,6.54
2019-03-13T05:39:12.860Z,6.60
2019-03-13T05:40:12.876Z,6.56
2019-03-13T05:41:13.173Z,6.64
2019-03-13T05:42:12.823Z,6.60
2019-03-13T05:43:12.795Z,6.62
2019-03-13T05:44:12.806Z,6.60
2019-03-13T05:45:12.798Z,6.64
2019-03-13T05:46:12.900Z,6.63
2019-03-13T05:47:12.858Z,6.64
2019-03-13T05:48:12.755Z,6.59
2019-03-13T05:49:12.732Z,6.63
2019-03-13T05:50:12.717Z,6.66
2019-03-13T05:51:12.726Z,6.54
2019-03-13T05:52:12.795Z,6.62
2019-03-13T05:53:12.678Z,6.52
2019-03-13T05:54:12.687Z,6.54
2019-03-13T05:55:12.657Z,6.54
2019-03-13T05:56:12.644Z,6.66
2019-03-13T05:57:12.771Z,6.63
2019-03-13T05:58:12.663Z,6.70
2019-03-13T05:59:12.713Z,6.56
2019-03-13T06:00:12.664Z,6.54
2019-03-13T06:01:12.607Z,6.59
2019-03-13T06:02:13.494Z,6.67
2019-03-13T06:03:12.600Z,6.63
2019-03-13T06:04:12.570Z,6.67
2019-03-13T06:05:12.671Z,6.67
2019-03-13T06:06:12.553Z,6.63
2019-03-13T06:07:12.555Z,6.60
2019-03-13T06:08:12.522Z,6.59
2019-03-13T06:09:12.594Z,6.59
2019-03-13T06:10:12.516Z,6.60
2019-03-13T06:11:12.486Z,6.63
2019-03-13T06:12:12.535Z,6.57
2019-03-13T06:13:12.669Z,6.59
2019-03-13T06:14:12.523Z,6.57
2019-03-13T06:15:12.459Z,6.59
2019-03-13T06:16:12.591Z,6.64
2019-03-13T06:17:12.464Z,6.59
2019-03-13T06:18:12.492Z,6.70
2019-03-13T06:19:12.465Z,6.62
2019-03-13T06:20:12.373Z,6.60
2019-03-13T06:21:12.400Z,6.63
2019-03-13T06:22:12.362Z,6.64
2019-03-13T06:23:12.363Z,6.59
2019-03-13T06:24:12.490Z,6.57
2019-03-13T06:25:12.346Z,6.59
2019-03-13T06:26:12.299Z,6.67
2019-03-13T06:27:12.386Z,6.67
2019-03-13T06:28:12.330Z,6.60
2019-03-13T06:29:12.406Z,6.63
2019-03-13T06:30:12.365Z,6.63
2019-03-13T06:31:12.297Z,6.72
2019-03-13T06:32:12.342Z,6.74
2019-03-13T06:33:12.249Z,6.69
2019-03-13T06:34:12.266Z,6.75
2019-03-13T06:35:12.333Z,6.79
2019-03-13T06:36:12.215Z,6.82
2019-03-13T06:37:12.205Z,6.78
2019-03-13T06:38:12.187Z,6.59
2019-03-13T06:39:12.222Z,6.52
2019-03-13T06:40:12.163Z,6.46
2019-03-13T06:41:12.246Z,6.54
2019-03-13T06:42:12.157Z,6.44
2019-03-13T06:43:12.209Z,6.45
2019-03-13T06:44:12.137Z,6.49
2019-03-13T06:45:12.130Z,6.60
2019-03-13T06:46:12.216Z,6.60
2019-03-13T06:47:12.088Z,6.52
2019-03-13T06:48:12.062Z,6.69
2019-03-13T06:49:12.202Z,6.64
2019-03-13T06:50:12.048Z,6.64
2019-03-13T06:51:12.094Z,6.66
2019-03-13T06:52:12.030Z,6.64
2019-03-13T06:53:12.030Z,6.54
2019-03-13T06:54:11.999Z,6.63
2019-03-13T06:55:12.068Z,6.64
2019-03-13T06:56:12.010Z,6.69
2019-03-13T06:57:12.045Z,6.67
2019-03-13T06:58:11.993Z,6.74
2019-03-13T06:59:13.435Z,6.66
2019-03-13T07:00:11.999Z,6.70
2019-03-13T07:01:11.987Z,6.69
2019-03-13T07:02:11.922Z,6.64
2019-03-13T07:03:11.934Z,6.59
2019-03-13T07:04:11.964Z,6.57
2019-03-13T07:05:11.902Z,6.60
2019-03-13T07:06:12.509Z,6.59
2019-03-13T07:07:12.084Z,6.57
2019-03-13T07:08:11.852Z,6.44
2019-03-13T07:09:11.858Z,6.56
2019-03-13T07:10:11.947Z,6.56
2019-03-13T07:11:11.813Z,6.46
2019-03-13T07:12:11.842Z,6.44
2019-03-13T07:13:11.953Z,6.45
2019-03-13T07:14:11.778Z,6.48
2019-03-13T07:15:11.797Z,6.41
2019-03-13T07:16:11.945Z,6.42
2019-03-13T07:17:11.794Z,6.48
2019-03-13T07:18:11.759Z,6.42
2019-03-13T07:19:11.824Z,6.49
2019-03-13T07:20:11.714Z,6.45
2019-03-13T07:21:11.712Z,6.42
2019-03-13T07:22:11.732Z,6.54
2019-03-13T07:23:11.822Z,6.62
2019-03-13T07:24:11.672Z,6.63
2019-03-13T07:25:11.672Z,6.63
2019-03-13T07:26:11.814Z,6.63
2019-03-13T07:27:11.714Z,6.59
2019-03-13T07:28:11.635Z,6.59
2019-03-13T07:29:12.820Z,6.57
2019-03-13T07:30:11.637Z,6.69
2019-03-13T07:31:11.636Z,6.39
2019-03-13T07:32:11.584Z,6.51
2019-03-13T07:33:11.597Z,6.44
2019-03-13T07:34:11.571Z,6.39
2019-03-13T07:35:11.654Z,6.27
2019-03-13T07:36:11.565Z,6.20
2019-03-13T07:37:11.553Z,6.26
2019-03-13T07:38:11.529Z,6.20
2019-03-13T07:39:11.607Z,6.16
2019-03-13T07:40:11.513Z,6.22
2019-03-13T07:41:11.502Z,6.19
2019-03-13T07:42:12.510Z,6.14
2019-03-13T07:43:11.517Z,6.22
2019-03-13T07:44:11.459Z,6.20
2019-03-13T07:45:11.537Z,6.26
2019-03-13T07:46:11.429Z,6.26
2019-03-13T07:47:11.428Z,6.20
2019-03-13T07:48:11.459Z,6.33
2019-03-13T07:49:11.408Z,6.33
2019-03-13T07:50:11.406Z,6.33
2019-03-13T07:51:11.454Z,6.33
2019-03-13T07:52:11.388Z,6.52
2019-03-13T07:53:11.381Z,6.42
2019-03-13T07:54:11.354Z,6.51
2019-03-13T07:55:11.348Z,6.49
2019-03-13T07:56:11.323Z,6.48
2019-03-13T07:57:11.414Z,6.56
2019-03-13T07:58:11.318Z,6.56
2019-03-13T07:59:11.370Z,6.69
2019-03-13T08:00:11.264Z,6.69
2019-03-13T08:01:11.282Z,6.62
2019-03-13T08:02:11.343Z,6.67
2019-03-13T08:03:12.015Z,6.66
2019-03-13T08:04:11.252Z,6.75
2019-03-13T08:05:11.250Z,6.72
2019-03-13T08:06:11.281Z,6.79
2019-03-13T08:07:11.246Z,6.72
2019-03-13T08:08:11.315Z,6.78
2019-03-13T08:09:11.222Z,6.75
2019-03-13T08:10:11.198Z,6.70
2019-03-13T08:11:11.235Z,6.67
2019-03-13T08:12:11.235Z,6.72
2019-03-13T08:13:11.165Z,6.67
2019-03-13T08:14:11.137Z,6.77
2019-03-13T08:15:11.153Z,6.72
2019-03-13T08:16:11.119Z,6.72
2019-03-13T08:17:11.179Z,6.78
2019-03-13T08:18:11.089Z,6.81
2019-03-13T08:19:11.082Z,6.84
2019-03-13T08:20:11.081Z,6.78
2019-03-13T08:21:11.132Z,6.89
2019-03-13T08:22:11.173Z,6.92
2019-03-13T08:23:11.034Z,6.87
2019-03-13T08:24:11.058Z,6.89
2019-03-13T08:25:11.021Z,6.89
2019-03-13T08:26:11.069Z,6.89
2019-03-13T08:27:10.980Z,6.92
2019-03-13T08:28:10.980Z,6.93
2019-03-13T08:29:10.973Z,6.88
2019-03-13T08:30:10.969Z,6.92
2019-03-13T08:31:10.959Z,6.95
2019-03-13T08:32:11.008Z,6.89
2019-03-13T08:33:10.921Z,6.93
2019-03-13T08:34:10.908Z,6.82
2019-03-13T08:35:10.972Z,6.89
2019-03-13T08:36:10.879Z,6.77
2019-03-13T08:37:10.988Z,6.85
2019-03-13T08:38:10.875Z,6.72
2019-03-13T08:39:10.862Z,6.75
2019-03-13T08:40:10.872Z,6.79
2019-03-13T08:41:10.862Z,6.81
2019-03-13T08:42:10.838Z,6.75
2019-03-13T08:43:11.519Z,6.70
2019-03-13T08:44:10.804Z,6.78
2019-03-13T08:45:10.783Z,6.70
2019-03-13T08:46:10.891Z,6.77
2019-03-13T08:47:10.826Z,6.74
2019-03-13T08:48:10.766Z,6.78
2019-03-13T08:49:10.852Z,6.79
2019-03-13T08:50:10.727Z,6.79
2019-03-13T08:51:10.777Z,6.79
2019-03-13T08:52:10.794Z,6.93
2019-03-13T08:53:10.732Z,6.95
2019-03-13T08:54:10.704Z,6.82
2019-03-13T08:55:10.673Z,6.89
2019-03-13T08:56:10.662Z,6.88
2019-03-13T08:57:10.643Z,6.93
2019-03-13T08:58:10.722Z,6.89
2019-03-13T08:59:10.635Z,6.93
2019-03-13T09:00:10.725Z,6.93
2019-03-13T09:01:10.606Z,6.95
2019-03-13T09:02:10.597Z,7.03
2019-03-13T09:03:10.666Z,7.03
2019-03-13T09:04:10.587Z,7.07
2019-03-13T09:05:10.598Z,7.03
2019-03-13T09:06:10.567Z,7.02
2019-03-13T09:07:10.588Z,7.03
2019-03-13T09:08:10.615Z,6.95
2019-03-13T09:09:10.586Z,6.93
2019-03-13T09:10:10.499Z,6.84
2019-03-13T09:11:10.497Z,6.93
2019-03-13T09:12:10.515Z,6.87
2019-03-13T09:13:10.564Z,6.84
2019-03-13T09:14:10.456Z,6.70
2019-03-13T09:15:10.460Z,6.70
2019-03-13T09:16:10.503Z,6.52
2019-03-13T09:17:11.040Z,6.48
2019-03-13T09:18:10.457Z,6.35
2019-03-13T09:19:10.420Z,6.30
2019-03-13T09:20:10.405Z,6.28
2019-03-13T09:21:10.533Z,6.27
2019-03-13T09:22:27.142Z,6.24
2019-03-13T09:23:10.414Z,6.17
2019-03-13T09:24:10.356Z,6.17
2019-03-13T09:25:12.477Z,6.16
2019-03-13T09:26:10.347Z,6.26
2019-03-13T09:27:10.319Z,6.19
2019-03-13T09:28:10.401Z,6.22
2019-03-13T09:29:10.500Z,6.17
2019-03-13T09:30:10.300Z,6.14
2019-03-13T09:31:10.266Z,6.08
2019-03-13T09:32:10.314Z,6.02
2019-03-13T09:33:10.330Z,6.04
2019-03-13T09:34:10.244Z,5.87
2019-03-13T09:35:10.240Z,5.82
2019-03-13T09:36:10.237Z,5.87
2019-03-13T09:37:10.197Z,5.73
2019-03-13T09:38:10.224Z,5.80
2019-03-13T09:39:10.258Z,5.84
2019-03-13T09:40:10.256Z,5.71
2019-03-13T09:41:10.189Z,5.71
2019-03-13T09:42:10.152Z,5.69
2019-03-13T09:43:10.168Z,5.72
2019-03-13T09:44:10.236Z,5.75
2019-03-13T09:45:10.273Z,5.73
2019-03-13T09:46:10.092Z,5.82
2019-03-13T09:47:10.155Z,5.83
2019-03-13T09:48:10.129Z,5.79
2019-03-13T09:49:10.105Z,5.79
2019-03-13T09:50:10.050Z,5.93
2019-03-13T09:51:10.065Z,5.90
2019-03-13T09:52:10.062Z,5.91
2019-03-13T09:53:10.103Z,5.98
2019-03-13T09:54:10.033Z,5.99
2019-03-13T09:55:10.029Z,6.05
2019-03-13T09:56:09.989Z,6.07
2019-03-13T09:57:09.979Z,6.12
2019-03-13T09:58:09.988Z,6.19
2019-03-13T09:59:10.041Z,6.27
2019-03-13T10:00:09.923Z,6.30
2019-03-13T10:01:11.033Z,6.20
2019-03-13T10:02:09.923Z,6.28
2019-03-13T10:03:09.903Z,6.31
2019-03-13T10:04:10.017Z,6.35
2019-03-13T10:05:09.972Z,6.36
2019-03-13T10:06:09.876Z,6.38
2019-03-13T10:07:09.864Z,6.33
2019-03-13T10:08:09.859Z,6.33
2019-03-13T10:09:09.875Z,6.41
2019-03-13T10:10:09.878Z,6.46
2019-03-13T10:11:09.910Z,6.42
2019-03-13T10:12:09.799Z,6.52
2019-03-13T10:13:09.798Z,6.52
2019-03-13T10:14:09.793Z,6.45
2019-03-13T10:15:09.875Z,6.51
2019-03-13T10:16:09.842Z,6.48
2019-03-13T10:17:11.318Z,6.46
2019-03-13T10:18:09.747Z,6.45
2019-03-13T10:19:09.744Z,6.48
2019-03-13T10:20:09.752Z,6.44
2019-03-13T10:21:09.809Z,6.45
2019-03-13T10:22:09.695Z,6.57
2019-03-13T10:23:09.695Z,6.63
2019-03-13T10:24:09.699Z,6.52
2019-03-13T10:25:09.789Z,6.56
2019-03-13T10:26:09.667Z,6.64
2019-03-13T10:27:09.711Z,6.60
2019-03-13T10:28:09.746Z,6.69
2019-03-13T10:29:09.624Z,6.70
2019-03-13T10:30:09.610Z,6.72
2019-03-13T10:31:09.677Z,6.77
2019-03-13T10:32:09.597Z,6.79
2019-03-13T10:33:09.674Z,6.79
2019-03-13T10:34:09.635Z,6.66
2019-03-13T10:35:09.572Z,6.72
2019-03-13T10:36:09.560Z,6.74
2019-03-13T10:37:09.624Z,6.82
2019-03-13T10:38:14.073Z,6.79
2019-03-13T10:39:09.544Z,6.84
2019-03-13T10:40:09.560Z,6.78
2019-03-13T10:41:09.661Z,6.77
2019-03-13T10:42:09.563Z,6.81
2019-03-13T10:43:09.453Z,6.89
2019-03-13T10:44:09.530Z,6.81
2019-03-13T10:45:09.441Z,6.88
2019-03-13T10:46:09.427Z,6.84
2019-03-13T10:47:09.512Z,6.79
2019-03-13T10:48:09.464Z,6.82
2019-03-13T10:49:09.402Z,6.89
2019-03-13T10:50:09.386Z,6.82
2019-03-13T10:51:09.389Z,6.92
2019-03-13T10:52:09.436Z,6.96
2019-03-13T10:53:09.420Z,6.92
2019-03-13T10:54:09.343Z,7.02
2019-03-13T10:55:09.332Z,7.06
2019-03-13T10:56:09.364Z,7.07
2019-03-13T10:57:09.363Z,7.06
2019-03-13T10:58:09.300Z,7.10
2019-03-13T10:59:09.341Z,7.15
2019-03-13T11:00:09.329Z,7.05
2019-03-13T11:01:09.277Z,7.17
2019-03-13T11:02:09.275Z,7.20
2019-03-13T11:03:09.268Z,7.21
2019-03-13T11:04:09.289Z,7.28
2019-03-13T11:05:09.503Z,7.28
2019-03-13T11:06:09.227Z,7.33
2019-03-13T11:07:09.190Z,7.42
2019-03-13T11:08:09.259Z,7.43
2019-03-13T11:09:09.265Z,7.40
2019-03-13T11:10:09.177Z,7.38
2019-03-13T11:11:09.217Z,7.35
2019-03-13T11:12:09.138Z,7.43
2019-03-13T11:13:09.159Z,7.50
2019-03-13T11:14:15.432Z,7.47
2019-03-13T11:15:10.208Z,7.48
2019-03-13T11:16:09.155Z,7.47
2019-03-13T11:17:10.048Z,7.47
2019-03-13T11:18:09.169Z,7.57
2019-03-13T11:19:09.083Z,7.51
2019-03-13T11:20:09.053Z,7.50
2019-03-13T11:21:09.119Z,7.56
2019-03-13T11:22:09.150Z,7.43
2019-03-13T11:23:09.023Z,7.45
2019-03-13T11:24:09.092Z,7.56
2019-03-13T11:25:09.044Z,7.50
2019-03-13T11:26:08.994Z,7.50
2019-03-13T11:27:08.994Z,7.50
2019-03-13T11:28:09.054Z,7.57
2019-03-13T11:29:08.954Z,7.48
2019-03-13T11:30:08.952Z,7.50
2019-03-13T11:31:08.939Z,7.54
2019-03-13T11:32:08.909Z,7.56
2019-03-13T11:33:08.906Z,7.42
2019-03-13T11:34:09.089Z,7.47
2019-03-13T11:35:08.905Z,7.48
2019-03-13T11:36:08.896Z,7.48
2019-03-13T11:37:09.126Z,7.45
2019-03-13T11:38:08.912Z,7.45
2019-03-13T11:39:08.840Z,7.50
2019-03-13T11:40:08.888Z,7.58
2019-03-13T11:41:08.815Z,7.53
2019-03-13T11:42:08.815Z,7.48
2019-03-13T11:43:08.802Z,7.53
2019-03-13T11:44:08.869Z,7.56
2019-03-13T11:45:08.780Z,7.66
2019-03-13T11:46:08.832Z,7.57
2019-03-13T11:47:08.758Z,7.73
2019-03-13T11:48:08.756Z,7.67
2019-03-13T11:49:08.774Z,7.60
2019-03-13T11:50:08.913Z,7.69
2019-03-13T11:51:08.802Z,7.72
2019-03-13T11:52:08.672Z,7.72
2019-03-13T11:53:08.746Z,7.69
2019-03-13T11:54:08.715Z,7.63
2019-03-13T11:55:08.727Z,7.70
2019-03-13T11:56:08.657Z,7.70
2019-03-13T11:57:08.638Z,7.60
2019-03-13T11:58:08.646Z,7.66
2019-03-13T11:59:08.659Z,7.60
2019-03-13T12:00:08.607Z,7.72
2019-03-13T12:01:08.758Z,7.72
2019-03-13T12:02:08.580Z,7.70
2019-03-13T12:03:08.579Z,7.75
2019-03-13T12:04:08.642Z,7.75
2019-03-13T12:05:08.544Z,7.80
2019-03-13T12:06:09.055Z,7.77
2019-03-13T12:07:08.580Z,7.75
2019-03-13T12:08:08.525Z,7.76
2019-03-13T12:09:08.506Z,7.80
2019-03-13T12:10:08.489Z,7.79
2019-03-13T12:11:08.545Z,7.66
2019-03-13T12:12:08.570Z,7.73
2019-03-13T12:13:10.445Z,7.73
2019-03-13T12:14:08.446Z,7.67
2019-03-13T12:15:08.447Z,7.66
2019-03-13T12:16:08.498Z,7.54
2019-03-13T12:17:08.562Z,7.58
2019-03-13T12:18:08.451Z,7.53
2019-03-13T12:19:08.388Z,7.58
2019-03-13T12:20:08.406Z,7.45
2019-03-13T12:21:08.363Z,7.33
2019-03-13T12:22:08.395Z,7.29
2019-03-13T12:23:08.375Z,7.17
2019-03-13T12:24:08.419Z,7.20
2019-03-13T12:25:08.329Z,7.13
2019-03-13T12:26:08.367Z,7.20
2019-03-13T12:27:08.292Z,7.23
2019-03-13T12:28:08.298Z,7.17
2019-03-13T12:29:08.319Z,7.13
2019-03-13T12:30:08.270Z,7.07
2019-03-13T12:31:08.245Z,7.10
2019-03-13T12:32:08.264Z,7.13
2019-03-13T12:33:08.220Z,7.05
2019-03-13T12:34:08.213Z,7.06
2019-03-13T12:35:08.242Z,7.05
2019-03-13T12:36:08.335Z,7.02
2019-03-13T12:37:08.228Z,6.96
2019-03-13T12:38:08.175Z,6.92
2019-03-13T12:39:08.168Z,6.87
2019-03-13T12:40:08.209Z,6.88
2019-03-13T12:41:08.135Z,6.93
2019-03-13T12:42:08.151Z,6.89
2019-03-13T12:43:08.142Z,6.87
2019-03-13T12:44:08.173Z,6.87
2019-03-13T12:45:08.096Z,6.92
2019-03-13T12:46:08.217Z,6.84
2019-03-13T12:47:08.222Z,6.87
2019-03-13T12:48:16.574Z,6.87
2019-03-13T12:49:09.119Z,6.88
2019-03-13T12:50:08.022Z,6.87
2019-03-13T12:51:08.147Z,6.84
2019-03-13T12:52:08.009Z,6.79
2019-03-13T12:53:08.031Z,6.84
2019-03-13T12:54:08.015Z,6.69
2019-03-13T12:55:08.004Z,6.78
2019-03-13T12:56:08.038Z,6.77
2019-03-13T12:57:08.104Z,6.67
2019-03-13T12:58:08.020Z,6.72
2019-03-13T12:59:07.970Z,6.67
2019-03-13T13:00:07.959Z,6.67
2019-03-13T13:01:07.934Z,6.63
2019-03-13T13:02:07.919Z,6.63
2019-03-13T13:03:07.980Z,6.64
2019-03-13T13:04:07.976Z,6.70
2019-03-13T13:05:07.896Z,6.70
2019-03-13T13:06:07.874Z,6.69
2019-03-13T13:07:07.885Z,6.64
2019-03-13T13:08:07.898Z,6.66
2019-03-13T13:09:07.897Z,6.66
2019-03-13T13:10:07.919Z,6.69
2019-03-13T13:11:07.845Z,6.78
2019-03-13T13:12:07.848Z,6.72
2019-03-13T13:13:08.046Z,6.74
2019-03-13T13:14:07.850Z,6.81
2019-03-13T13:15:07.775Z,6.88
2019-03-13T13:16:07.772Z,6.82
2019-03-13T13:17:07.840Z,6.95
2019-03-13T13:18:07.739Z,6.93